createdAt,value
2022-12-11T00:00:15.636Z,-1.42
2022-12-11T00:37:36.224Z,-0.83
2022-12-11T00:38:38.617Z,-0.73
2022-12-11T00:39:41.003Z,-0.70
2022-12-11T00:40:44.028Z,-0.71
2022-12-11T00:41:46.266Z,-0.67
2022-12-11T00:42:48.532Z,-0.69
2022-12-11T00:43:50.845Z,-0.80
2022-12-11T00:44:53.614Z,-0.93
2022-12-11T00:45:55.925Z,-0.98
2022-12-11T00:46:58.128Z,-0.95
2022-12-11T00:48:00.350Z,-0.95
2022-12-11T00:49:02.523Z,-0.88
2022-12-11T00:50:05.179Z,-0.90
2022-12-11T00:51:07.976Z,-1.00
2022-12-11T00:52:10.894Z,-0.88
2022-12-11T00:53:13.097Z,-0.72
2022-12-11T00:54:15.324Z,-0.60
2022-12-11T00:55:18.259Z,-0.60
2022-12-11T00:56:22.211Z,-0.74
2022-12-11T00:57:24.348Z,-0.84
2022-12-11T00:58:26.619Z,-0.70
2022-12-11T00:59:29.175Z,-0.78
2022-12-11T01:00:31.436Z,-0.66
2022-12-11T01:01:34.277Z,-0.50
2022-12-11T01:02:36.522Z,-0.41
2022-12-11T01:03:39.132Z,-0.19
2022-12-11T01:04:41.398Z,-0.36
2022-12-11T01:05:52.185Z,0.10
2022-12-11T01:06:54.462Z,-0.36
2022-12-11T01:07:56.675Z,-0.39
2022-12-11T01:09:17.597Z,-0.26
2022-12-11T01:10:26.084Z,-0.01
2022-12-11T01:11:28.644Z,0.06
2022-12-11T01:12:30.939Z,0.18
2022-12-11T01:13:33.938Z,0.28
2022-12-11T01:14:36.125Z,0.18
2022-12-11T01:15:43.915Z,0.23
2022-12-11T01:16:46.309Z,0.23
2022-12-11T01:17:49.997Z,0.21
2022-12-11T01:18:52.261Z,-0.05
2022-12-11T01:19:54.955Z,-0.25
2022-12-11T01:20:57.387Z,-0.46
2022-12-11T01:22:00.323Z,-0.55
2022-12-11T01:23:02.581Z,-0.44
2022-12-11T01:24:05.192Z,-0.43
2022-12-11T01:25:09.844Z,-0.28
2022-12-11T01:26:14.915Z,-0.36
2022-12-11T01:27:17.108Z,-0.32
2022-12-11T01:28:19.292Z,-0.03
2022-12-11T01:29:21.576Z,-0.46
2022-12-11T01:30:25.604Z,-0.15
2022-12-11T01:31:27.837Z,0.11
2022-12-11T01:32:30.048Z,-0.31
2022-12-11T01:33:32.201Z,-0.20
2022-12-11T01:34:34.425Z,-0.30
2022-12-11T01:35:36.836Z,-0.20
2022-12-11T01:36:39.134Z,-0.39
2022-12-11T01:37:41.658Z,-0.70
2022-12-11T01:38:44.820Z,-0.63
2022-12-11T01:39:47.221Z,-0.55
2022-12-11T01:40:51.411Z,-0.56
2022-12-11T01:41:58.206Z,-0.47
2022-12-11T01:43:00.513Z,-0.49
2022-12-11T01:44:30.994Z,-0.47
2022-12-11T01:45:39.230Z,-0.37
2022-12-11T01:46:42.859Z,-0.37
2022-12-11T01:47:45.177Z,-0.28
2022-12-11T01:48:47.601Z,-0.03
2022-12-11T01:49:49.802Z,-0.04
2022-12-11T01:50:53.504Z,-0.03
2022-12-11T01:52:01.736Z,-0.06
2022-12-11T01:53:07.043Z,-0.17
2022-12-11T01:54:13.479Z,0.13
2022-12-11T01:55:17.313Z,-0.34
2022-12-11T01:56:19.715Z,-0.32
2022-12-11T01:57:22.025Z,-0.28
2022-12-11T01:58:29.424Z,-0.18
2022-12-11T01:59:34.194Z,-0.50
